createdAt,value
2018-12-10T00:01:33.451Z,6.80
2018-12-10T00:04:01.519Z,6.80
2018-12-10T00:06:29.592Z,6.70
2018-12-10T00:08:57.775Z,6.70
2018-12-10T00:11:25.843Z,6.70
2018-12-10T00:13:53.973Z,6.80
2018-12-10T00:16:22.046Z,6.80
2018-12-10T00:18:50.189Z,6.80
2018-12-10T00:21:18.257Z,6.80
2018-12-10T00:23:46.339Z,6.70
2018-12-10T00:26:14.423Z,6.60
2018-12-10T00:28:42.485Z,6.60
2018-12-10T00:31:10.579Z,6.60
2018-12-10T00:33:38.749Z,6.60
2018-12-10T00:36:06.838Z,6.50
2018-12-10T00:38:34.909Z,6.40
2018-12-10T00:41:02.987Z,6.50
2018-12-10T00:43:31.051Z,6.40
2018-12-10T00:45:59.157Z,6.30
2018-12-10T00:48:27.227Z,6.40
2018-12-10T00:50:55.327Z,6.40
2018-12-10T00:53:23.390Z,6.30
2018-12-10T00:55:51.466Z,6.40
2018-12-10T00:58:19.542Z,6.40
2018-12-10T01:00:47.586Z,6.50
2018-12-10T01:03:15.670Z,6.40
2018-12-10T01:05:43.828Z,6.50
2018-12-10T01:08:11.923Z,6.50
2018-12-10T01:10:40.000Z,6.60
2018-12-10T01:13:08.060Z,6.80
2018-12-10T01:15:36.227Z,6.70
2018-12-10T01:18:04.306Z,6.60
2018-12-10T01:20:32.413Z,6.60
2018-12-10T01:23:00.502Z,6.70
2018-12-10T01:25:28.653Z,6.80
2018-12-10T01:27:56.772Z,6.60
2018-12-10T01:30:24.823Z,6.70
2018-12-10T01:32:52.885Z,6.60
2018-12-10T01:35:20.954Z,6.60
2018-12-10T01:37:49.122Z,6.60
2018-12-10T01:40:17.190Z,6.50
2018-12-10T01:42:45.295Z,6.40
2018-12-10T01:45:13.361Z,6.40
2018-12-10T01:47:41.439Z,6.40
2018-12-10T01:50:09.506Z,6.40
2018-12-10T01:52:37.615Z,6.40
2018-12-10T01:55:05.764Z,6.40
2018-12-10T01:57:33.825Z,6.40
2018-12-10T02:00:02.106Z,6.20
2018-12-10T02:02:30.338Z,6.10
2018-12-10T02:04:58.494Z,6.10
2018-12-10T02:07:26.560Z,6.10
2018-12-10T02:09:54.641Z,6.10
2018-12-10T02:12:22.708Z,6.10
2018-12-10T02:14:50.757Z,6.10
2018-12-10T02:17:18.851Z,6.10
2018-12-10T02:19:46.948Z,6.10
2018-12-10T02:22:15.096Z,6.00
2018-12-10T02:24:43.162Z,5.90
2018-12-10T02:27:11.255Z,6.00
2018-12-10T02:29:39.366Z,6.00
2018-12-10T02:32:07.585Z,6.10
2018-12-10T02:34:35.610Z,6.00
2018-12-10T02:37:04.986Z,6.00
2018-12-10T02:39:33.057Z,6.00
2018-12-10T02:42:01.120Z,6.10
2018-12-10T02:44:29.263Z,6.10
2018-12-10T02:46:57.358Z,6.30
2018-12-10T02:49:25.430Z,6.30
2018-12-10T02:51:53.512Z,6.10
2018-12-10T02:54:21.573Z,6.00
2018-12-10T02:56:49.645Z,6.00
2018-12-10T02:59:17.754Z,6.00
2018-12-10T03:01:45.882Z,6.00
2018-12-10T03:04:13.976Z,6.00
2018-12-10T03:06:42.068Z,6.00
2018-12-10T03:09:10.230Z,6.10
2018-12-10T03:11:38.309Z,6.00
2018-12-10T03:14:06.373Z,6.10
2018-12-10T03:16:34.443Z,6.10
2018-12-10T03:19:02.529Z,6.00
2018-12-10T03:21:30.607Z,6.00
2018-12-10T03:23:58.686Z,6.00
2018-12-10T03:26:26.751Z,6.00
2018-12-10T03:28:54.828Z,5.90
2018-12-10T03:31:23.690Z,5.90
2018-12-10T03:33:52.347Z,5.90
2018-12-10T03:36:20.442Z,6.00
2018-12-10T03:38:48.576Z,5.90
2018-12-10T03:41:16.640Z,5.80
2018-12-10T03:43:44.721Z,5.70
2018-12-10T03:46:12.862Z,5.80
2018-12-10T03:48:40.949Z,5.70
2018-12-10T03:51:09.004Z,5.90
2018-12-10T03:53:37.094Z,5.80
2018-12-10T03:56:05.161Z,6.00
2018-12-10T03:58:33.446Z,6.00
2018-12-10T04:01:01.727Z,6.00
2018-12-10T04:03:29.790Z,6.00
2018-12-10T04:05:57.879Z,6.10
2018-12-10T04:08:26.028Z,6.00
2018-12-10T04:10:54.169Z,5.90
2018-12-10T04:13:23.084Z,5.80
2018-12-10T04:15:51.146Z,5.80
2018-12-10T04:18:19.218Z,5.70
2018-12-10T04:20:47.291Z,5.70
2018-12-10T04:23:15.357Z,5.70
2018-12-10T04:25:43.448Z,5.60
2018-12-10T04:28:11.495Z,5.70
2018-12-10T04:30:39.612Z,5.70
2018-12-10T04:33:07.704Z,5.60
2018-12-10T04:35:35.761Z,5.70
2018-12-10T04:38:03.915Z,5.60
2018-12-10T04:40:31.996Z,5.60
2018-12-10T04:43:00.075Z,5.70
2018-12-10T04:45:28.135Z,5.80
2018-12-10T04:47:56.208Z,5.60
2018-12-10T04:50:24.281Z,5.60
2018-12-10T04:52:52.349Z,5.70
2018-12-10T04:55:20.453Z,5.70
2018-12-10T04:57:48.538Z,5.80
2018-12-10T05:00:16.609Z,5.80
2018-12-10T05:02:44.740Z,5.70
2018-12-10T05:05:12.848Z,5.70
2018-12-10T05:07:40.924Z,5.60
2018-12-10T05:10:09.010Z,5.50
2018-12-10T05:12:37.078Z,5.60
2018-12-10T05:15:05.294Z,5.80
2018-12-10T05:17:33.367Z,5.80
2018-12-10T05:20:01.428Z,5.80
2018-12-10T05:22:29.499Z,5.90
2018-12-10T05:24:57.568Z,5.90
2018-12-10T05:27:25.638Z,6.00
2018-12-10T05:29:54.522Z,5.90
2018-12-10T05:32:22.590Z,5.70
2018-12-10T05:34:50.667Z,5.50
2018-12-10T05:37:18.749Z,5.30
2018-12-10T05:39:46.821Z,5.20
2018-12-10T05:42:14.902Z,5.30
2018-12-10T05:44:42.978Z,5.30
2018-12-10T05:47:11.049Z,5.20
2018-12-10T05:49:39.136Z,5.40
2018-12-10T05:52:07.231Z,5.40
2018-12-10T05:54:35.314Z,5.30
2018-12-10T05:57:03.658Z,5.20
2018-12-10T05:59:31.789Z,5.20
2018-12-10T06:01:59.862Z,5.30
2018-12-10T06:04:27.910Z,5.30
2018-12-10T06:06:55.990Z,5.20
2018-12-10T06:09:24.670Z,5.20
2018-12-10T06:11:52.740Z,5.10
2018-12-10T06:14:20.819Z,5.20
2018-12-10T06:16:48.922Z,5.10
2018-12-10T06:19:16.986Z,5.00
2018-12-10T06:21:45.085Z,5.00
2018-12-10T06:24:13.186Z,5.10
2018-12-10T06:26:41.261Z,5.20
2018-12-10T06:29:09.342Z,5.20
2018-12-10T06:31:37.421Z,5.10
2018-12-10T06:34:05.567Z,5.00
2018-12-10T06:36:33.642Z,5.00
2018-12-10T06:39:01.730Z,5.10
2018-12-10T06:41:29.813Z,5.00
2018-12-10T06:43:57.899Z,5.10
2018-12-10T06:46:25.975Z,5.20
2018-12-10T06:48:54.066Z,5.30
2018-12-10T06:51:22.110Z,5.30
2018-12-10T06:53:50.191Z,5.40
2018-12-10T06:56:18.246Z,5.50
2018-12-10T06:58:46.411Z,5.60
2018-12-10T07:01:14.513Z,5.60
2018-12-10T07:03:42.599Z,5.60
2018-12-10T07:06:10.711Z,5.60
2018-12-10T07:08:38.803Z,5.40
2018-12-10T07:11:06.886Z,5.40
2018-12-10T07:13:34.977Z,5.50
2018-12-10T07:16:03.279Z,5.40
2018-12-10T07:18:31.334Z,5.20
2018-12-10T07:20:59.388Z,5.20
2018-12-10T07:23:27.473Z,5.20
2018-12-10T07:25:55.548Z,5.10
2018-12-10T07:28:23.609Z,5.00
2018-12-10T07:30:51.713Z,5.00
2018-12-10T07:33:19.751Z,5.00
2018-12-10T07:35:47.834Z,5.10
2018-12-10T07:38:15.919Z,5.10
2018-12-10T07:40:44.010Z,5.20
2018-12-10T07:43:12.070Z,5.20
2018-12-10T07:45:40.159Z,5.10
2018-12-10T07:48:08.229Z,5.20
2018-12-10T07:50:36.297Z,5.30
2018-12-10T07:53:04.400Z,5.40
2018-12-10T07:55:32.462Z,5.50
2018-12-10T07:58:00.568Z,5.50
2018-12-10T08:00:28.626Z,5.70
2018-12-10T08:02:56.714Z,5.80
2018-12-10T08:05:24.787Z,5.70
2018-12-10T08:07:52.872Z,5.50
2018-12-10T08:10:20.953Z,5.50
2018-12-10T08:12:49.022Z,5.40
2018-12-10T08:15:17.123Z,5.50
2018-12-10T08:17:45.206Z,5.50
2018-12-10T08:20:13.291Z,5.60
2018-12-10T08:22:41.347Z,5.80
2018-12-10T08:25:09.422Z,5.90
2018-12-10T08:27:37.487Z,6.00
2018-12-10T08:30:05.811Z,6.10
2018-12-10T08:32:33.899Z,6.10
2018-12-10T08:35:01.990Z,6.00
2018-12-10T08:37:30.090Z,5.90
2018-12-10T08:39:58.879Z,5.70
2018-12-10T08:42:26.968Z,5.80
2018-12-10T08:44:55.028Z,5.80
2018-12-10T08:47:23.198Z,6.00
2018-12-10T08:49:51.279Z,6.00
2018-12-10T08:52:19.375Z,5.90
2018-12-10T08:54:47.472Z,5.80
2018-12-10T08:57:15.566Z,5.90
2018-12-10T08:59:44.020Z,6.00
2018-12-10T09:02:12.119Z,6.00
2018-12-10T09:04:40.202Z,6.20
2018-12-10T09:07:08.271Z,6.50
2018-12-10T09:09:36.341Z,6.60
2018-12-10T09:12:04.452Z,6.50
2018-12-10T09:14:32.521Z,6.30
2018-12-10T09:17:00.618Z,6.30
2018-12-10T09:19:28.682Z,6.20
2018-12-10T09:21:56.765Z,6.50
2018-12-10T09:24:24.826Z,7.40
2018-12-10T09:26:52.914Z,8.70
2018-12-10T09:29:21.034Z,9.90
2018-12-10T09:31:49.119Z,10.50
2018-12-10T09:34:17.192Z,10.30
2018-12-10T09:36:45.294Z,9.30
2018-12-10T09:39:13.450Z,8.50
2018-12-10T09:41:41.515Z,8.20
2018-12-10T09:44:09.595Z,7.90
2018-12-10T09:46:37.683Z,7.40
2018-12-10T09:49:05.761Z,7.20
2018-12-10T09:51:33.885Z,7.00
2018-12-10T09:54:01.921Z,7.10
2018-12-10T09:56:30.063Z,7.30
2018-12-10T09:58:58.119Z,7.20
2018-12-10T10:01:26.353Z,7.10
2018-12-10T10:03:54.500Z,7.10
2018-12-10T10:06:22.567Z,7.10
2018-12-10T10:08:50.665Z,7.00
2018-12-10T10:11:18.721Z,6.90
2018-12-10T10:13:47.041Z,6.80
2018-12-10T10:16:15.207Z,6.70
2018-12-10T10:18:43.285Z,6.70
2018-12-10T10:21:11.644Z,6.70
2018-12-10T10:23:39.903Z,6.70
2018-12-10T10:26:07.988Z,6.70
2018-12-10T10:28:36.070Z,6.60
2018-12-10T10:31:04.150Z,6.70
2018-12-10T10:33:32.685Z,6.70
2018-12-10T10:36:00.876Z,6.60
2018-12-10T10:38:28.935Z,6.80
2018-12-10T10:40:57.394Z,6.90
2018-12-10T10:43:25.461Z,6.70
2018-12-10T10:45:53.528Z,6.60
2018-12-10T10:48:21.728Z,6.60
2018-12-10T10:50:49.871Z,6.60
2018-12-10T10:53:17.962Z,6.70
2018-12-10T10:55:46.028Z,6.60
2018-12-10T10:58:14.107Z,6.50
2018-12-10T11:00:47.977Z,6.50
2018-12-10T11:06:10.420Z,6.30
2018-12-10T11:08:38.510Z,6.30
2018-12-10T11:11:06.567Z,6.40
2018-12-10T11:13:34.650Z,6.30
2018-12-10T11:16:02.709Z,6.30
2018-12-10T11:18:30.783Z,6.40
2018-12-10T11:20:58.876Z,6.40
2018-12-10T11:23:26.962Z,6.50
2018-12-10T11:25:55.038Z,6.60
2018-12-10T11:28:23.201Z,6.70
2018-12-10T11:30:51.254Z,6.70
2018-12-10T11:33:19.354Z,6.80
2018-12-10T11:35:47.409Z,6.90
2018-12-10T11:38:15.520Z,6.90
2018-12-10T11:40:43.591Z,6.90
2018-12-10T11:43:11.667Z,7.10
2018-12-10T11:45:39.739Z,7.20
2018-12-10T11:48:07.831Z,7.20
2018-12-10T11:50:35.919Z,7.20
2018-12-10T11:53:03.986Z,7.90
2018-12-10T11:55:32.051Z,8.70
2018-12-10T11:58:00.148Z,9.00
2018-12-10T12:00:29.674Z,9.50
2018-12-10T12:02:58.069Z,10.20
2018-12-10T12:05:26.130Z,10.20
2018-12-10T12:07:54.217Z,10.10
2018-12-10T12:10:22.311Z,9.40
2018-12-10T12:12:50.540Z,9.00
2018-12-10T12:15:19.092Z,8.30
2018-12-10T12:17:47.178Z,7.60
2018-12-10T12:20:15.281Z,7.30
2018-12-10T12:22:43.347Z,7.20
2018-12-10T12:25:11.429Z,7.20
2018-12-10T12:27:39.490Z,7.20
2018-12-10T12:30:08.207Z,7.30
2018-12-10T12:32:36.281Z,7.40
2018-12-10T12:35:04.556Z,7.40
2018-12-10T12:37:32.614Z,7.20
2018-12-10T12:40:00.713Z,7.00
2018-12-10T12:42:28.815Z,7.00
2018-12-10T12:44:56.897Z,6.90
2018-12-10T12:47:24.999Z,6.90
2018-12-10T12:49:53.096Z,6.90
2018-12-10T12:52:21.153Z,6.90
2018-12-10T12:54:49.249Z,6.90
2018-12-10T12:57:17.351Z,6.80
2018-12-10T12:59:45.404Z,6.90
2018-12-10T13:02:13.483Z,7.00
2018-12-10T13:04:41.539Z,7.10
2018-12-10T13:07:09.610Z,7.00
2018-12-10T13:09:37.825Z,7.00
2018-12-10T13:12:05.953Z,7.10
2018-12-10T13:14:34.038Z,7.10
2018-12-10T13:17:02.110Z,7.20
2018-12-10T13:19:30.199Z,7.20
2018-12-10T13:21:58.874Z,7.20
2018-12-10T13:24:26.941Z,7.20
2018-12-10T13:26:55.003Z,7.30
2018-12-10T13:29:31.043Z,7.30
2018-12-10T13:31:53.200Z,7.30
2018-12-10T13:34:21.274Z,7.30
2018-12-10T13:36:49.374Z,7.20
2018-12-10T13:39:17.459Z,7.20
2018-12-10T13:41:45.517Z,7.20
2018-12-10T13:44:15.132Z,7.20
2018-12-10T13:46:43.237Z,7.20
2018-12-10T13:49:11.318Z,7.10
2018-12-10T13:51:39.398Z,7.10
2018-12-10T13:54:07.508Z,7.30
2018-12-10T13:56:36.755Z,7.00
2018-12-10T13:59:04.948Z,7.00
2018-12-10T14:01:33.011Z,7.00
2018-12-10T14:04:03.072Z,7.10
2018-12-10T14:06:31.162Z,7.10
2018-12-10T14:08:59.228Z,7.10
2018-12-10T14:11:27.343Z,7.00
2018-12-10T14:13:55.403Z,7.00
2018-12-10T14:16:23.483Z,6.90
2018-12-10T14:18:51.585Z,6.80
2018-12-10T14:21:19.643Z,6.70
2018-12-10T14:23:47.927Z,6.60
2018-12-10T14:26:16.115Z,6.60
2018-12-10T14:28:44.902Z,6.50
2018-12-10T14:31:13.146Z,6.50
2018-12-10T14:33:41.241Z,6.60
2018-12-10T14:36:09.347Z,6.60
2018-12-10T14:38:38.657Z,6.70
2018-12-10T14:41:06.734Z,6.70
2018-12-10T14:43:34.883Z,6.80
2018-12-10T14:46:03.027Z,6.90
2018-12-10T14:48:31.070Z,6.80
2018-12-10T14:50:59.164Z,6.60
2018-12-10T14:53:27.268Z,6.30
2018-12-10T14:55:55.393Z,6.10
2018-12-10T14:58:23.477Z,6.00
2018-12-10T15:00:51.543Z,5.90
2018-12-10T15:03:19.615Z,5.90
2018-12-10T15:05:47.889Z,5.80
2018-12-10T15:08:16.087Z,5.80
2018-12-10T15:10:44.235Z,6.00
2018-12-10T15:13:12.357Z,6.00
2018-12-10T15:15:41.287Z,5.80
2018-12-10T15:18:09.357Z,5.90
2018-12-10T15:20:37.510Z,5.80
2018-12-10T15:23:05.657Z,5.90
2018-12-10T15:25:33.698Z,5.90
2018-12-10T15:28:01.856Z,6.00
2018-12-10T15:30:29.945Z,5.80
2018-12-10T15:32:57.999Z,5.90
2018-12-10T15:35:26.106Z,6.20
2018-12-10T15:37:54.152Z,6.40
2018-12-10T15:40:22.270Z,6.50
2018-12-10T15:42:50.378Z,6.30
2018-12-10T15:45:18.456Z,6.40
2018-12-10T15:47:46.548Z,6.30
2018-12-10T15:50:14.632Z,6.30
2018-12-10T15:52:42.734Z,6.20
2018-12-10T15:55:10.815Z,6.20
2018-12-10T15:57:38.949Z,6.20
2018-12-10T16:00:08.662Z,6.20
2018-12-10T16:02:36.798Z,6.30
2018-12-10T16:05:05.253Z,6.40
2018-12-10T16:07:33.428Z,6.20
2018-12-10T16:10:01.491Z,6.20
2018-12-10T16:12:29.594Z,6.20
2018-12-10T16:14:57.725Z,6.20
2018-12-10T16:17:26.310Z,6.10
2018-12-10T16:19:54.415Z,6.00
2018-12-10T16:22:22.592Z,6.00
2018-12-10T16:24:50.762Z,6.00
2018-12-10T16:27:19.111Z,6.10
2018-12-10T16:29:47.234Z,6.10
2018-12-10T16:32:15.316Z,6.00
2018-12-10T16:34:43.419Z,6.00
2018-12-10T16:37:11.527Z,6.00
2018-12-10T16:39:43.742Z,5.90
2018-12-10T16:42:09.719Z,5.90
2018-12-10T16:44:37.805Z,5.90
2018-12-10T16:47:05.908Z,5.90
2018-12-10T16:49:34.024Z,5.80
2018-12-10T16:52:02.115Z,5.60
2018-12-10T16:54:30.184Z,5.50
2018-12-10T16:56:58.293Z,5.50
2018-12-10T16:59:26.370Z,5.60
2018-12-10T17:01:54.484Z,5.50
2018-12-10T17:04:22.596Z,5.50
2018-12-10T17:06:50.721Z,5.50
2018-12-10T17:09:19.081Z,5.60
2018-12-10T17:11:47.453Z,5.40
2018-12-10T17:14:15.938Z,5.30
2018-12-10T17:16:44.262Z,5.30
2018-12-10T17:19:12.385Z,5.40
2018-12-10T17:21:40.452Z,5.30
2018-12-10T17:24:08.538Z,5.10
2018-12-10T17:26:36.618Z,5.10
2018-12-10T17:29:04.729Z,5.30
2018-12-10T17:31:32.838Z,5.30
2018-12-10T17:34:00.916Z,5.40
2018-12-10T17:36:28.996Z,5.40
2018-12-10T17:38:57.094Z,5.50
2018-12-10T17:41:25.224Z,5.60
2018-12-10T17:43:53.566Z,5.60
2018-12-10T17:46:21.647Z,5.40
2018-12-10T17:48:49.762Z,5.40
2018-12-10T17:51:17.879Z,5.40
2018-12-10T17:53:46.253Z,5.50
2018-12-10T17:56:14.345Z,5.60
2018-12-10T17:58:42.448Z,5.60
2018-12-10T18:01:11.052Z,5.70
2018-12-10T18:03:39.157Z,5.90
2018-12-10T18:06:07.371Z,6.00
2018-12-10T18:08:35.498Z,6.00
2018-12-10T18:11:03.640Z,6.00
2018-12-10T18:13:31.731Z,6.00
2018-12-10T18:15:59.813Z,6.10
2018-12-10T18:18:27.943Z,6.20
2018-12-10T18:20:56.033Z,6.10
2018-12-10T18:23:24.215Z,6.10
2018-12-10T18:25:52.295Z,6.00
2018-12-10T18:28:20.415Z,6.10
2018-12-10T18:30:48.513Z,6.10
2018-12-10T18:33:16.607Z,6.00
2018-12-10T18:35:44.723Z,5.90
2018-12-10T18:38:12.795Z,5.80
2018-12-10T18:40:40.928Z,5.60
2018-12-10T18:43:08.984Z,5.60
2018-12-10T18:45:37.105Z,5.60
2018-12-10T18:48:05.244Z,5.60
2018-12-10T18:50:33.398Z,5.50
2018-12-10T18:53:01.454Z,5.50
2018-12-10T18:55:29.571Z,5.50
2018-12-10T18:57:57.812Z,5.60
2018-12-10T19:00:25.912Z,5.60
2018-12-10T19:02:54.445Z,5.50
2018-12-10T19:05:24.526Z,5.40
2018-12-10T19:07:52.583Z,5.60
2018-12-10T19:10:20.666Z,5.40
2018-12-10T19:12:48.766Z,5.30
2018-12-10T19:15:16.855Z,5.30
2018-12-10T19:17:44.924Z,5.40
2018-12-10T19:20:13.797Z,5.50
2018-12-10T19:22:42.232Z,5.60
2018-12-10T19:25:10.297Z,5.50
2018-12-10T19:27:38.386Z,5.70
2018-12-10T19:30:07.126Z,5.70
2018-12-10T19:32:35.288Z,5.60
2018-12-10T19:35:03.761Z,5.50
2018-12-10T19:37:31.886Z,5.60
2018-12-10T19:39:59.959Z,5.60
2018-12-10T19:42:28.073Z,5.50
2018-12-10T19:44:56.154Z,5.50
2018-12-10T19:47:24.225Z,5.70
2018-12-10T19:49:52.418Z,5.60
2018-12-10T19:52:20.516Z,5.30
2018-12-10T19:54:48.622Z,5.30
2018-12-10T19:57:16.750Z,5.30
2018-12-10T19:59:44.845Z,5.30
2018-12-10T20:02:13.644Z,5.20
2018-12-10T20:04:41.690Z,5.20
2018-12-10T20:07:09.872Z,5.20
2018-12-10T20:09:37.975Z,5.10
2018-12-10T20:12:06.202Z,5.10
2018-12-10T20:14:34.286Z,5.10
2018-12-10T20:17:02.734Z,5.20
2018-12-10T20:19:30.839Z,5.20
2018-12-10T20:21:58.947Z,5.10
2018-12-10T20:24:27.049Z,5.10
2018-12-10T20:26:55.198Z,5.10
2018-12-10T20:29:23.297Z,5.00
2018-12-10T20:31:51.493Z,5.00
2018-12-10T20:34:19.727Z,5.20
2018-12-10T20:36:48.151Z,5.30
2018-12-10T20:39:16.339Z,5.10
2018-12-10T20:41:44.447Z,5.10
2018-12-10T20:44:12.568Z,5.20
2018-12-10T20:46:40.690Z,5.40
2018-12-10T20:49:08.830Z,5.40
2018-12-10T20:51:36.959Z,5.30
2018-12-10T20:54:05.056Z,5.00
2018-12-10T20:56:33.126Z,5.00
2018-12-10T20:59:01.219Z,5.10
2018-12-10T21:01:29.289Z,5.20
2018-12-10T21:03:57.468Z,5.20
2018-12-10T21:06:31.190Z,5.10
2018-12-10T21:08:59.279Z,5.20
2018-12-10T21:11:27.380Z,5.30
2018-12-10T21:13:55.467Z,5.40
2018-12-10T21:16:23.544Z,5.30
2018-12-10T21:18:51.760Z,5.20
2018-12-10T21:21:19.928Z,5.20
2018-12-10T21:23:48.027Z,5.20
2018-12-10T21:26:16.110Z,5.20
2018-12-10T21:28:44.190Z,5.30
2018-12-10T21:31:12.295Z,5.40
2018-12-10T21:33:40.397Z,5.40
2018-12-10T21:36:08.487Z,5.30
2018-12-10T21:38:36.671Z,5.40
2018-12-10T21:41:04.779Z,5.50
2018-12-10T21:43:32.867Z,5.60
2018-12-10T21:46:00.943Z,5.60
2018-12-10T21:48:29.059Z,5.30
2018-12-10T21:50:57.148Z,5.30
2018-12-10T21:53:25.219Z,5.20
2018-12-10T21:55:53.296Z,5.10
2018-12-10T21:58:21.385Z,5.10
2018-12-10T22:00:49.458Z,5.10
2018-12-10T22:03:17.550Z,5.30
2018-12-10T22:05:45.632Z,5.50
2018-12-10T22:08:13.716Z,5.50
2018-12-10T22:10:41.787Z,5.50
2018-12-10T22:13:10.715Z,5.50
2018-12-10T22:15:38.794Z,5.40
2018-12-10T22:18:06.866Z,5.30
2018-12-10T22:20:34.966Z,5.20
2018-12-10T22:23:03.092Z,5.20
2018-12-10T22:25:31.181Z,5.20
2018-12-10T22:27:59.347Z,5.20
2018-12-10T22:30:27.426Z,5.10
2018-12-10T22:32:55.513Z,5.20
2018-12-10T22:35:23.604Z,5.30
2018-12-10T22:37:51.717Z,5.30
2018-12-10T22:40:19.775Z,5.30
2018-12-10T22:42:47.914Z,5.50
2018-12-10T22:45:16.003Z,5.40
2018-12-10T22:47:44.066Z,5.40
2018-12-10T22:50:12.612Z,5.40
2018-12-10T22:52:40.778Z,5.30
2018-12-10T22:55:08.870Z,5.40
2018-12-10T22:57:36.955Z,5.50
2018-12-10T23:00:07.932Z,5.50
2018-12-10T23:02:36.120Z,5.50
2018-12-10T23:05:04.470Z,5.20
2018-12-10T23:07:32.549Z,5.30
2018-12-10T23:10:00.626Z,5.20
2018-12-10T23:12:28.819Z,5.20
2018-12-10T23:14:56.862Z,5.10
2018-12-10T23:17:24.945Z,5.00
2018-12-10T23:19:53.028Z,5.00
2018-12-10T23:22:21.081Z,5.00
2018-12-10T23:24:49.194Z,5.10
2018-12-10T23:27:17.254Z,5.20
2018-12-10T23:29:45.336Z,5.20
2018-12-10T23:32:13.457Z,5.10
2018-12-10T23:34:42.499Z,5.10
2018-12-10T23:37:10.570Z,5.40
2018-12-10T23:39:38.683Z,5.30
2018-12-10T23:42:06.776Z,5.20
2018-12-10T23:44:40.709Z,5.10
2018-12-10T23:47:08.809Z,5.20
2018-12-10T23:49:36.860Z,5.40
2018-12-10T23:52:04.962Z,5.50
2018-12-10T23:54:33.024Z,5.30
2018-12-10T23:57:01.138Z,5.20
2018-12-10T23:59:29.189Z,5.10
